Peekskill, New York
Current Conditions -  °F | °C
As of 12:45 AM on Saturday 01 Nov 2014 (Local Time) from KSWF Reporting Station
Overcast Overcast  
Wind Chill: 44°   Ceiling: 2000
Heat Index: 46°   Visibility: 10mi
Dew Point: 39°   Wind: 6mph
Humidity: 76%   Direction: 90°E
Pressure: 29.92"   Gusts: 17mph
Location:  41.29°N, 73.92°W
Report Text: KSWF 010445Z 09005G15KT 10SM BKN020 OVC035 08/04 A2992
Loading
Personal Weather Stations






























Interactive Weather Map
Tropical Storm Tracking
New forecast layout! Learn more

10-Day Weather Forecast

Advertisements
Track Severe Weather on mobile